Cook Municipal, MN

3:06 PM CST on December 19, 2014 (GMT -0600)
Orr Regional | Change Station
CLOSE
Current Station
Airport
Location: Orr,
Elevation: 1309 ft
Nearby Weather Stations

Elev 1309 ft 48.02 °N, 92.86 °W | Updated 13 minutes ago

Overcast
Overcast
25 °F
Feels Like 16 °F
N
8
Wind Variable Wind from SE

Today
High -- | Low -- °F
--% Chance of Precip.
Yesterday
High -- | Low -- °F
Precip. -- in
7:55 AM 4:19 PM
Waning Crescent, 6% visible
Pressure 30.10 in
Visibility 4.0 miles
Clouds Scattered Clouds 1500 ft
Mostly Cloudy 6000 ft
Overcast 8000 ft
Windchill 16 °F
Dew Point 19 °F
Humidity 80%
Rainfall 0.00 in
Snow Depth Not available.
UV 0 out of 12
Pollen .10 out of 12
Air Quality Not available.
Flu Activity Not available.
METAR KORB 192053Z AUTO 14007KT 4SM UP SCT015 BKN060 OVC080 M04/M07 A3010 RMK AO2

More Conditions Fewer Conditions

Pressure 30.10 in
Visibility 4.0 miles
Clouds Scattered Clouds 1500 ft
Mostly Cloudy 6000 ft
Overcast 8000 ft
Windchill 16 °F
Dew Point 19 °F
Humidity 80%
Rainfall 0.00 in
Snow Depth Not available.
UV 0 out of 12
Pollen .10 out of 12
Air Quality Not available.
Flu Activity Not available.
METAR KORB 192053Z AUTO 14007KT 4SM UP SCT015 BKN060 OVC080 M04/M07 A3010 RMK AO2

More Conditions Fewer Conditions

10-Day Weather Forecast

Almanac

Astronomy

Dec. 19, 2014 Rise Set
Actual Time
Civil Twilight
Nautical Twilight
Astronomical Twilight
Moon
Length of Visible Light
Length of Day
Tomorrow will be .
, % of the Moon is Illuminated

Today's Extremes

State Highs State Lows

Community

WunderPhotos

Upload Photos

1,779,051 photos uploaded!

WunderBlogs® & News

Nearby

Air Quality

  Air Quality AQ Index Pollutant
Not available.

Snow Depth

Station Depth Elevation

Earthquake Activity

City Distance Mag. Time & Date
Minimum magnitude displayed is 2.5.

Coastal Water Temperatures

Place Temperature

Nearby Weather Stations